Time;durP1;ratioP1;P1;durP2;ratioP2;P2;SDS_P1;SDS_P2;PMS_P1;PMS_P2;Temp;Humidity;BMP_temperature;BMP_pressure;BME280_temperature;BME280_humidity;BME280_pressure;Samples;Min_cycle;Max_cycle;Signal;HPM_P1;HPM_P2
2023/05/19 00:01:24;;;;;;;;;;;;;;;;;;6237042;22;20057;-92
2023/05/19 00:03:51;;;;;;;;;;;;;;;;;;6217113;22;20365;-92
2023/05/19 00:06:18;;;;;;;;;;;;;;;;;;6218269;22;19922;-92
2023/05/19 00:08:43;;;;;;;;;;;;;;;;;;6214064;22;19946;-92
2023/05/19 00:11:09;;;;;;;;;;;;;;;;;;6218245;22;19919;-92
2023/05/19 00:13:35;;;;;;;;;;;;;;;;;;6214500;22;19926;-92
2023/05/19 00:16:01;;;;;;;;;;;;;;;;;;6215998;22;20329;-91
2023/05/19 00:18:28;;;;;;;;;;;;;;;;;;6214932;22;19990;-92
2023/05/19 00:20:54;;;;;;;;;;;;;;;;;;6241961;22;19919;-92
2023/05/19 00:23:20;;;;;;;;;;;;;;;;;;6216710;22;20449;-92
2023/05/19 00:25:46;;;;;;;;;;;;;;;;;;6239492;22;19926;-91
2023/05/19 00:28:12;;;;;;;;;;;;;;;;;;6240852;22;19998;-92
2023/05/19 00:30:38;;;;;;;;;;;;;;;;;;6240748;22;19923;-92
2023/05/19 00:33:04;;;;;;;;;;;;;;;;;;6241577;22;19919;-91
2023/05/19 00:35:30;;;;;;;;;;;;;;;;;;6213954;22;20259;-92
2023/05/19 00:37:56;;;;;;;;;;;;;;;;;;6240284;22;19919;-92
2023/05/19 00:40:22;;;;;;;;;;;;;;;;;;6214726;22;19962;-92
2023/05/19 00:42:48;;;;;;;;;;;;;;;;;;6240623;22;20256;-91
2023/05/19 00:45:14;;;;;;;;;;;;;;;;;;6238561;22;19915;-91
2023/05/19 00:47:39;;;;;;;;;;;;;;;;;;6213512;22;19927;-90
2023/05/19 00:50:05;;;;;;;;;;;;;;;;;;6216424;22;20244;-91
2023/05/19 00:52:31;;;;;;;;;;;;;;;;;;6238992;22;19919;-91
2023/05/19 00:54:57;;;;;;;;;;;;;;;;;;6240589;22;19922;-92
2023/05/19 00:57:24;;;;;;;;;;;;;;;;;;6213137;22;19919;-92
2023/05/19 00:59:50;;;;;;;;;;;;;;;;;;6241328;22;20251;-91
2023/05/19 01:02:16;;;;;;;;;;;;;;;;;;6215885;22;19922;-91
2023/05/19 01:04:42;;;;;;;;;;;;;;;;;;6213996;22;20348;-91
2023/05/19 01:07:09;;;;;;;;;;;;;;;;;;6217863;22;20233;-92
2023/05/19 01:09:36;;;;;;;;;;;;;;;;;;6240476;22;19919;-92
2023/05/19 01:12:02;;;;;;;;;;;;;;;;;;6241490;22;20386;-91
2023/05/19 01:14:28;;;;;;;;;;;;;;;;;;6238786;22;20363;-91
2023/05/19 01:16:55;;;;;;;;;;;;;;;;;;6240693;22;19990;-91
2023/05/19 01:19:21;;;;;;;;;;;;;;;;;;6215648;22;19926;-91
2023/05/19 01:21:47;;;;;;;;;;;;;;;;;;6213913;22;19919;-91
2023/05/19 01:24:13;;;;;;;;;;;;;;;;;;6215087;22;20335;-92
2023/05/19 01:26:39;;;;;;;;;;;;;;;;;;6239669;22;19926;-91
2023/05/19 01:29:05;;;;;;;;;;;;;;;;;;6240821;22;19930;-92
2023/05/19 01:31:31;;;;;;;;;;;;;;;;;;6238829;22;19955;-93
2023/05/19 01:33:57;;;;;;;;;;;;;;;;;;6214981;22;19969;-91
2023/05/19 01:36:23;;;;;;;;;;;;;;;;;;6238798;22;19925;-93
2023/05/19 01:38:49;;;;;;;;;;;;;;;;;;6241128;22;19922;-92
2023/05/19 01:41:15;;;;;;;;;;;;;;;;;;6239822;22;19919;-90
2023/05/19 01:43:41;;;;;;;;;;;;;;;;;;6238024;22;20006;-92
2023/05/19 01:46:07;;;;;;;;;;;;;;;;;;6240629;22;19918;-91
2023/05/19 01:48:32;;;;;;;;;;;;;;;;;;6214106;22;19934;-92
2023/05/19 01:50:58;;;;;;;;;;;;;;;;;;6216265;22;19919;-92
2023/05/19 01:53:24;;;;;;;;;;;;;;;;;;6240325;22;19919;-91
2023/05/19 01:55:50;;;;;;;;;;;;;;;;;;6217648;22;20257;-92
2023/05/19 01:58:16;;;;;;;;;;;;;;;;;;6241895;22;20214;-92
2023/05/19 02:00:42;;;;;;;;;;;;;;;;;;6214717;22;19946;-92
2023/05/19 02:03:08;;;;;;;;;;;;;;;;;;6242482;22;19922;-92
2023/05/19 02:05:34;;;;;;;;;;;;;;;;;;6239169;22;20005;-91
2023/05/19 02:08:01;;;;;;;;;;;;;;;;;;6243168;22;20324;-91
2023/05/19 02:10:29;;;;;;;;;;;;;;;;;;6239676;22;19919;-92
2023/05/19 02:12:55;;;;;;;;;;;;;;;;;;6242745;22;19915;-92
2023/05/19 02:15:21;;;;;;;;;;;;;;;;;;6241267;22;19969;-92
2023/05/19 02:17:49;;;;;;;;;;;;;;;;;;6238606;22;19973;-91
2023/05/19 02:20:15;;;;;;;;;;;;;;;;;;6214902;22;20343;-92
2023/05/19 02:22:41;;;;;;;;;;;;;;;;;;6238155;22;19950;-91
2023/05/19 02:25:07;;;;;;;;;;;;;;;;;;6214923;22;20022;-91
2023/05/19 02:27:33;;;;;;;;;;;;;;;;;;6213549;22;19919;-92
2023/05/19 02:29:59;;;;;;;;;;;;;;;;;;6214752;22;19924;-91
2023/05/19 02:32:25;;;;;;;;;;;;;;;;;;6213282;22;19994;-91
2023/05/19 02:34:52;;;;;;;;;;;;;;;;;;6212300;22;19919;-91
2023/05/19 02:37:18;;;;;;;;;;;;;;;;;;6214452;22;19998;-91
2023/05/19 02:39:43;;;;;;;;;;;;;;;;;;6211735;22;19950;-91
2023/05/19 02:42:10;;;;;;;;;;;;;;;;;;6215525;22;19923;-90
2023/05/19 02:44:36;;;;;;;;;;;;;;;;;;6211055;22;19916;-92
2023/05/19 02:47:02;;;;;;;;;;;;;;;;;;6214440;22;20034;-91
2023/05/19 02:49:34;;;;;;;;;;;;;;;;;;6236006;22;20441;-91
2023/05/19 02:52:00;;;;;;;;;;;;;;;;;;6241662;22;19919;-90
2023/05/19 02:54:26;;;;;;;;;;;;;;;;;;6211030;22;19949;-91
2023/05/19 02:56:52;;;;;;;;;;;;;;;;;;6215499;22;19915;-90
2023/05/19 02:59:18;;;;;;;;;;;;;;;;;;6240398;22;19915;-91
2023/05/19 03:01:46;;;;;;;;;;;;;;;;;;6237135;22;19925;-91
2023/05/19 03:04:12;;;;;;;;;;;;;;;;;;6214080;22;20278;-90
2023/05/19 03:06:38;;;;;;;;;;;;;;;;;;6238272;22;19965;-91
2023/05/19 03:09:04;;;;;;;;;;;;;;;;;;6239413;22;19927;-91
2023/05/19 03:11:30;;;;;;;;;;;;;;;;;;6237157;22;20652;-92
2023/05/19 03:13:56;;;;;;;;;;;;;;;;;;6239995;22;19919;-91
2023/05/19 03:16:23;;;;;;;;;;;;;;;;;;6239751;22;19919;-91
2023/05/19 03:18:49;;;;;;;;;;;;;;;;;;6213578;22;19950;-91
2023/05/19 03:21:15;;;;;;;;;;;;;;;;;;6214218;22;19916;-91
2023/05/19 03:23:41;;;;;;;;;;;;;;;;;;6213163;22;20426;-91
2023/05/19 03:26:07;;;;;;;;;;;;;;;;;;6214944;22;20247;-91
2023/05/19 03:28:33;;;;;;;;;;;;;;;;;;6235829;22;20221;-91
2023/05/19 03:30:59;;;;;;;;;;;;;;;;;;6213346;22;19927;-90
2023/05/19 03:33:28;;;;;;;;;;;;;;;;;;6212777;22;20343;-91
2023/05/19 03:35:54;;;;;;;;;;;;;;;;;;6213604;22;19919;-91
2023/05/19 03:38:20;;;;;;;;;;;;;;;;;;6214948;22;19923;-92
2023/05/19 03:40:46;;;;;;;;;;;;;;;;;;6238728;22;20340;-91
2023/05/19 03:43:12;;;;;;;;;;;;;;;;;;6215592;22;19968;-91
2023/05/19 03:45:38;;;;;;;;;;;;;;;;;;6238569;22;20605;-91
2023/05/19 03:48:04;;;;;;;;;;;;;;;;;;6213904;22;19930;-91
2023/05/19 03:50:32;;;;;;;;;;;;;;;;;;6238396;22;19919;-91
2023/05/19 03:52:58;;;;;;;;;;;;;;;;;;6216874;22;19942;-91
2023/05/19 03:55:24;;;;;;;;;;;;;;;;;;6214207;22;20653;-91
2023/05/19 03:57:51;;;;;;;;;;;;;;;;;;6240226;22;19951;-91
2023/05/19 04:00:17;;;;;;;;;;;;;;;;;;6241355;22;19919;-91
2023/05/19 04:02:43;;;;;;;;;;;;;;;;;;6213756;22;19969;-91
2023/05/19 04:05:09;;;;;;;;;;;;;;;;;;6216867;22;19926;-91
2023/05/19 04:07:35;;;;;;;;;;;;;;;;;;6211809;22;19994;-92
2023/05/19 04:10:01;;;;;;;;;;;;;;;;;;6214968;22;19959;-91
2023/05/19 04:12:27;;;;;;;;;;;;;;;;;;6239943;22;19972;-91
2023/05/19 04:14:53;;;;;;;;;;;;;;;;;;6241771;22;19919;-91
2023/05/19 04:17:19;;;;;;;;;;;;;;;;;;6217765;22;19961;-91
2023/05/19 04:19:45;;;;;;;;;;;;;;;;;;6215224;22;19919;-91
2023/05/19 04:22:11;;;;;;;;;;;;;;;;;;6241942;22;19976;-90
2023/05/19 04:24:37;;;;;;;;;;;;;;;;;;6238549;22;19998;-90
2023/05/19 04:27:03;;;;;;;;;;;;;;;;;;6241335;22;20310;-91
2023/05/19 04:29:29;;;;;;;;;;;;;;;;;;6238411;22;19927;-91
2023/05/19 04:31:59;;;;;;;;;;;;;;;;;;6216903;22;20349;-92
2023/05/19 04:34:27;;;;;;;;;;;;;;;;;;6237348;22;19919;-90
2023/05/19 04:36:54;;;;;;;;;;;;;;;;;;6240438;22;19919;-90
2023/05/19 04:39:20;;;;;;;;;;;;;;;;;;6214802;22;19946;-90
2023/05/19 04:41:46;;;;;;;;;;;;;;;;;;6238870;22;19926;-90
2023/05/19 04:44:12;;;;;;;;;;;;;;;;;;6240364;22;19919;-90
2023/05/19 04:46:38;;;;;;;;;;;;;;;;;;6237596;22;19919;-91
2023/05/19 04:49:04;;;;;;;;;;;;;;;;;;6215038;22;19923;-91
2023/05/19 04:51:30;;;;;;;;;;;;;;;;;;6239596;22;19921;-91
2023/05/19 04:53:56;;;;;;;;;;;;;;;;;;6214406;22;19915;-91
2023/05/19 04:56:22;;;;;;;;;;;;;;;;;;6214073;22;19926;-91
2023/05/19 04:58:48;;;;;;;;;;;;;;;;;;6214103;22;19919;-90
2023/05/19 05:01:14;;;;;;;;;;;;;;;;;;6215222;22;19919;-90
2023/05/19 05:03:40;;;;;;;;;;;;;;;;;;6214016;22;19938;-90
2023/05/19 05:06:06;;;;;;;;;;;;;;;;;;6215116;22;19986;-91
2023/05/19 05:08:32;;;;;;;;;;;;;;;;;;6212862;22;19970;-91
2023/05/19 05:10:58;;;;;;;;;;;;;;;;;;6216262;22;20002;-91
2023/05/19 05:13:24;;;;;;;;;;;;;;;;;;6236848;22;19950;-91
2023/05/19 05:15:54;;;;;;;;;;;;;;;;;;6239491;22;19919;-91
2023/05/19 05:18:23;;;;;;;;;;;;;;;;;;6216351;22;19916;-91
2023/05/19 05:20:49;;;;;;;;;;;;;;;;;;6240677;22;19919;-89
2023/05/19 05:23:15;;;;;;;;;;;;;;;;;;6242099;22;19998;-90
2023/05/19 05:25:41;;;;;;;;;;;;;;;;;;6212317;22;20351;-91
2023/05/19 05:28:07;;;;;;;;;;;;;;;;;;6240890;22;19915;-91
2023/05/19 05:30:33;;;;;;;;;;;;;;;;;;6212054;22;19930;-91
2023/05/19 05:32:59;;;;;;;;;;;;;;;;;;6215389;22;19976;-91
2023/05/19 05:35:25;;;;;;;;;;;;;;;;;;6211914;22;19919;-91
2023/05/19 05:37:51;;;;;;;;;;;;;;;;;;6214911;22;19919;-90
2023/05/19 05:40:17;;;;;;;;;;;;;;;;;;6215226;22;19942;-91
2023/05/19 05:42:43;;;;;;;;;;;;;;;;;;6210642;22;19977;-90
2023/05/19 05:45:09;;;;;;;;;;;;;;;;;;6213943;22;19920;-91
2023/05/19 05:47:40;;;;;;;;;;;;;;;;;;6237564;22;19930;-90
2023/05/19 05:50:06;;;;;;;;;;;;;;;;;;6212004;22;19962;-90
2023/05/19 05:52:32;;;;;;;;;;;;;;;;;;6211461;22;19915;-91
2023/05/19 05:54:58;;;;;;;;;;;;;;;;;;6213522;22;19989;-90
2023/05/19 05:57:24;;;;;;;;;;;;;;;;;;6236380;22;19919;-91
2023/05/19 05:59:50;;;;;;;;;;;;;;;;;;6238657;22;19915;-91
2023/05/19 06:02:16;;;;;;;;;;;;;;;;;;6268453;22;20037;-91
2023/05/19 06:04:42;;;;;;;;;;;;;;;;;;6236693;22;19919;-91
2023/05/19 06:07:08;;;;;;;;;;;;;;;;;;6217324;22;19919;-91
2023/05/19 06:09:34;;;;;;;;;;;;;;;;;;6214104;22;19965;-91
2023/05/19 06:12:00;;;;;;;;;;;;;;;;;;6241226;22;20084;-90
2023/05/19 06:14:26;;;;;;;;;;;;;;;;;;6212020;22;20327;-91
2023/05/19 06:16:52;;;;;;;;;;;;;;;;;;6214734;22;19927;-90
2023/05/19 06:19:23;;;;;;;;;;;;;;;;;;6213973;22;19925;-91
2023/05/19 06:21:49;;;;;;;;;;;;;;;;;;6215470;22;19930;-90
2023/05/19 06:24:15;;;;;;;;;;;;;;;;;;6241089;22;19919;-91
2023/05/19 06:26:41;;;;;;;;;;;;;;;;;;6238156;22;20782;-91
2023/05/19 06:29:07;;;;;;;;;;;;;;;;;;6239436;22;19929;-91
2023/05/19 06:31:33;;;;;;;;;;;;;;;;;;6237223;22;19927;-90
2023/05/19 06:34:00;;;;;;;;;;;;;;;;;;6215103;22;19998;-91
2023/05/19 06:36:25;;;;;;;;;;;;;;;;;;6214226;22;19926;-91
2023/05/19 06:38:51;;;;;;;;;;;;;;;;;;6216015;22;19919;-91
2023/05/19 06:41:17;;;;;;;;;;;;;;;;;;6240532;22;19923;-91
2023/05/19 06:43:43;;;;;;;;;;;;;;;;;;6238124;22;19927;-90
2023/05/19 06:46:11;;;;;;;;;;;;;;;;;;6213702;22;19919;-92
2023/05/19 06:48:37;;;;;;;;;;;;;;;;;;6236907;22;19947;-91
2023/05/19 06:51:03;;;;;;;;;;;;;;;;;;6214480;22;19969;-92
2023/05/19 06:53:29;;;;;;;;;;;;;;;;;;6213442;22;19926;-91
2023/05/19 06:55:55;;;;;;;;;;;;;;;;;;6215915;22;19986;-92
2023/05/19 06:58:21;;;;;;;;;;;;;;;;;;6238654;22;19954;-91
2023/05/19 07:00:47;;;;;;;;;;;;;;;;;;6210934;22;19951;-91
2023/05/19 07:03:13;;;;;;;;;;;;;;;;;;6214139;22;19994;-91
2023/05/19 07:05:39;;;;;;;;;;;;;;;;;;6236764;22;19931;-91
2023/05/19 07:08:07;;;;;;;;;;;;;;;;;;6239456;22;19930;-91
2023/05/19 07:10:33;;;;;;;;;;;;;;;;;;6237119;22;19959;-91
2023/05/19 07:12:59;;;;;;;;;;;;;;;;;;6216305;22;19972;-91
2023/05/19 07:15:25;;;;;;;;;;;;;;;;;;6238703;22;19926;-91
2023/05/19 07:17:51;;;;;;;;;;;;;;;;;;6216317;22;19923;-90
2023/05/19 07:20:17;;;;;;;;;;;;;;;;;;6241166;22;20320;-92
2023/05/19 07:22:42;;;;;;;;;;;;;;;;;;6214033;22;20277;-91
2023/05/19 07:25:08;;;;;;;;;;;;;;;;;;6214911;22;19932;-91
2023/05/19 07:27:35;;;;;;;;;;;;;;;;;;6238180;22;19919;-91
2023/05/19 07:30:01;;;;;;;;;;;;;;;;;;6241404;22;19966;-91
2023/05/19 07:32:27;;;;;;;;;;;;;;;;;;6213549;22;19927;-92
2023/05/19 07:34:53;;;;;;;;;;;;;;;;;;6213307;22;19925;-91
2023/05/19 07:37:19;;;;;;;;;;;;;;;;;;6215494;22;20411;-92
2023/05/19 07:39:45;;;;;;;;;;;;;;;;;;6214487;22;20302;-92
2023/05/19 07:42:11;;;;;;;;;;;;;;;;;;6241774;22;19931;-92
2023/05/19 07:44:37;;;;;;;;;;;;;;;;;;6212654;22;19915;-91
2023/05/19 07:47:03;;;;;;;;;;;;;;;;;;6215973;22;19919;-91
2023/05/19 07:49:29;;;;;;;;;;;;;;;;;;6237787;22;19923;-91
2023/05/19 07:51:55;;;;;;;;;;;;;;;;;;6216388;22;19919;-91
2023/05/19 07:54:21;;;;;;;;;;;;;;;;;;6213172;22;19923;-91
2023/05/19 07:56:47;;;;;;;;;;;;;;;;;;6240409;22;19916;-91
2023/05/19 07:59:13;;;;;;;;;;;;;;;;;;6215058;22;20006;-92
2023/05/19 08:01:39;;;;;;;;;;;;;;;;;;6213508;22;19934;-92
2023/05/19 08:04:05;;;;;;;;;;;;;;;;;;6239592;22;20313;-91
2023/05/19 08:06:31;;;;;;;;;;;;;;;;;;6238949;22;19919;-92
2023/05/19 08:08:57;;;;;;;;;;;;;;;;;;6241042;22;20248;-92
2023/05/19 08:11:23;;;;;;;;;;;;;;;;;;6240055;22;19915;-92
2023/05/19 08:13:49;;;;;;;;;;;;;;;;;;6241976;22;19919;-91
2023/05/19 08:16:15;;;;;;;;;;;;;;;;;;6241845;22;19927;-91
2023/05/19 08:18:41;;;;;;;;;;;;;;;;;;6238705;22;19951;-91
2023/05/19 08:21:07;;;;;;;;;;;;;;;;;;6239993;22;19919;-91
2023/05/19 08:23:33;;;;;;;;;;;;;;;;;;6238757;22;19926;-92
2023/05/19 08:26:00;;;;;;;;;;;;;;;;;;6242127;22;19920;-92
2023/05/19 08:28:26;;;;;;;;;;;;;;;;;;6214416;22;20283;-92
2023/05/19 08:30:52;;;;;;;;;;;;;;;;;;6214692;22;19923;-92
2023/05/19 08:33:20;;;;;;;;;;;;;;;;;;6242582;22;19920;-92
2023/05/19 08:35:46;;;;;;;;;;;;;;;;;;6213184;22;19919;-93
2023/05/19 08:38:12;;;;;;;;;;;;;;;;;;6240582;22;19919;-91
2023/05/19 08:40:39;;;;;;;;;;;;;;;;;;6236930;22;19926;-92
2023/05/19 08:43:05;;;;;;;;;;;;;;;;;;6241830;22;19915;-92
2023/05/19 08:45:33;;;;;;;;;;;;;;;;;;6214760;22;20722;-92
2023/05/19 08:47:59;;;;;;;;;;;;;;;;;;6242007;22;19922;-93
2023/05/19 08:50:25;;;;;;;;;;;;;;;;;;6239924;22;19927;-92
2023/05/19 08:52:51;;;;;;;;;;;;;;;;;;6217497;22;19915;-92
2023/05/19 08:55:17;;;;;;;;;;;;;;;;;;6243265;22;19923;-92
2023/05/19 08:57:42;;;;;;;;;;;;;;;;;;6215326;22;19996;-93
2023/05/19 09:00:10;;;;;;;;;;;;;;;;;;6217134;22;19920;-92
2023/05/19 09:02:36;;;;;;;;;;;;;;;;;;6215574;22;20336;-92
2023/05/19 09:05:02;;;;;;;;;;;;;;;;;;6217956;22;19994;-92
2023/05/19 09:07:28;;;;;;;;;;;;;;;;;;6240036;22;19915;-93
2023/05/19 09:09:55;;;;;;;;;;;;;;;;;;6242471;22;20288;-92
2023/05/19 09:12:21;;;;;;;;;;;;;;;;;;6243746;22;19986;-92
2023/05/19 09:14:47;;;;;;;;;;;;;;;;;;6213835;22;19969;-92
2023/05/19 09:17:14;;;;;;;;;;;;;;;;;;6215540;22;19923;-92
2023/05/19 09:19:40;;;;;;;;;;;;;;;;;;6212370;22;19987;-82
2023/05/19 09:22:06;;;;;;;;;;;;;;;;;;6217417;22;20398;-82
2023/05/19 09:24:32;;;;;;;;;;;;;;;;;;6212270;22;20269;-82
2023/05/19 09:26:58;;;;;;;;;;;;;;;;;;6216793;22;19919;-82
2023/05/19 09:29:24;;;;;;;;;;;;;;;;;;6212102;22;19969;-82
2023/05/19 09:31:50;;;;;;;;;;;;;;;;;;6242230;22;19915;-82
2023/05/19 09:34:16;;;;;;;;;;;;;;;;;;6214691;22;19919;-82
2023/05/19 09:36:42;;;;;;;;;;;;;;;;;;6214854;22;19973;-82
2023/05/19 09:39:08;;;;;;;;;;;;;;;;;;6241587;22;20305;-82
2023/05/19 09:41:34;;;;;;;;;;;;;;;;;;6213216;22;19968;-82
2023/05/19 09:44:01;;;;;;;;;;;;;;;;;;6215552;22;19919;-82
2023/05/19 09:46:29;;;;;;;;;;;;;;;;;;6240265;22;19993;-84
2023/05/19 09:48:55;;;;;;;;;;;;;;;;;;6214908;22;19973;-82
2023/05/19 09:51:21;;;;;;;;;;;;;;;;;;6209367;22;19926;-82
2023/05/19 09:53:47;;;;;;;;;;;;;;;;;;6237176;22;19919;-83
2023/05/19 09:56:13;;;;;;;;;;;;;;;;;;6239657;22;19919;-82
2023/05/19 09:58:40;;;;;;;;;;;;;;;;;;6208721;22;20255;-82
2023/05/19 10:01:06;;;;;;;;;;;;;;;;;;6210362;22;19941;-82
2023/05/19 10:03:35;;;;;;;;;;;;;;;;;;6238935;22;19919;-82
2023/05/19 10:06:01;;;;;;;;;;;;;;;;;;6241813;22;20006;-82
2023/05/19 10:08:28;;;;;;;;;;;;;;;;;;6213336;22;19919;-82
2023/05/19 10:10:54;;;;;;;;;;;;;;;;;;6240133;22;20390;-82
2023/05/19 10:13:20;;;;;;;;;;;;;;;;;;6238896;22;19922;-82
2023/05/19 10:15:46;;;;;;;;;;;;;;;;;;6236676;22;19923;-83
2023/05/19 10:18:12;;;;;;;;;;;;;;;;;;6213133;22;19919;-84
2023/05/19 10:20:38;;;;;;;;;;;;;;;;;;6235643;22;19950;-82
2023/05/19 10:23:04;;;;;;;;;;;;;;;;;;6239405;22;19994;-82
2023/05/19 10:25:30;;;;;;;;;;;;;;;;;;6209867;22;20256;-83
2023/05/19 10:27:56;;;;;;;;;;;;;;;;;;6215865;22;19930;-82
2023/05/19 10:30:22;;;;;;;;;;;;;;;;;;6239508;22;20361;-82
2023/05/19 10:32:48;;;;;;;;;;;;;;;;;;6211446;22;19942;-82
2023/05/19 10:35:16;;;;;;;;;;;;;;;;;;6237021;22;19915;-83
2023/05/19 10:37:43;;;;;;;;;;;;;;;;;;6236598;22;20315;-82
2023/05/19 10:40:09;;;;;;;;;;;;;;;;;;6213286;22;19995;-82
2023/05/19 10:42:35;;;;;;;;;;;;;;;;;;6209860;22;19951;-82
2023/05/19 10:45:01;;;;;;;;;;;;;;;;;;6238184;22;19950;-82
2023/05/19 10:47:27;;;;;;;;;;;;;;;;;;6233000;22;19919;-82
2023/05/19 10:49:54;;;;;;;;;;;;;;;;;;6214462;22;19923;-84
2023/05/19 10:52:20;;;;;;;;;;;;;;;;;;6212127;22;19947;-83
2023/05/19 10:54:46;;;;;;;;;;;;;;;;;;6235951;22;19946;-83
2023/05/19 10:57:12;;;;;;;;;;;;;;;;;;6238119;22;20320;-83
2023/05/19 10:59:38;;;;;;;;;;;;;;;;;;6236056;22;19926;-83
2023/05/19 11:02:04;;;;;;;;;;;;;;;;;;6240069;22;19938;-83
2023/05/19 11:04:33;;;;;;;;;;;;;;;;;;6237238;22;19998;-82
2023/05/19 11:06:59;;;;;;;;;;;;;;;;;;6215822;22;19923;-83
2023/05/19 11:09:25;;;;;;;;;;;;;;;;;;6237294;22;19949;-82
2023/05/19 11:11:51;;;;;;;;;;;;;;;;;;6268753;22;19990;-83
2023/05/19 11:14:17;;;;;;;;;;;;;;;;;;6241762;22;19942;-82
2023/05/19 11:16:46;;;;;;;;;;;;;;;;;;6213064;22;19923;-83
2023/05/19 11:19:12;;;;;;;;;;;;;;;;;;6211703;22;19923;-82
2023/05/19 11:21:38;;;;;;;;;;;;;;;;;;6215351;22;19926;-83
2023/05/19 11:24:04;;;;;;;;;;;;;;;;;;6242870;22;20243;-83
2023/05/19 11:26:30;;;;;;;;;;;;;;;;;;6266756;22;19984;-83
2023/05/19 11:29:05;;;;;;;;;;;;;;;;;;6233078;22;19919;-83
2023/05/19 11:31:35;;;;;;;;;;;;;;;;;;6209401;22;19923;-82
2023/05/19 11:34:01;;;;;;;;;;;;;;;;;;6238794;22;19919;-83
2023/05/19 11:36:27;;;;;;;;;;;;;;;;;;6238618;22;20290;-82
2023/05/19 11:38:53;;;;;;;;;;;;;;;;;;6239518;22;20296;-83
2023/05/19 11:41:20;;;;;;;;;;;;;;;;;;6214598;22;19947;-82
2023/05/19 11:43:46;;;;;;;;;;;;;;;;;;6238893;22;19947;-83
2023/05/19 11:46:12;;;;;;;;;;;;;;;;;;6215381;22;20212;-82
2023/05/19 11:48:38;;;;;;;;;;;;;;;;;;6264585;22;19919;-83
2023/05/19 11:51:04;;;;;;;;;;;;;;;;;;6206670;22;20003;-83
2023/05/19 11:53:44;;;;;;;;;;;;;;;;;;;;;
2023/05/19 11:59:46;;;;;;;;;;;;;;;;;;;;;
2023/05/19 12:02:38;;;;;;;;;;;;;;;;;;;;;
2023/05/19 12:05:10;;;;;;;;;;;;;;;;;;6244784;22;19915;-92
2023/05/19 12:07:46;;;;;;;;;;;;;;;;;;;;;
2023/05/19 12:13:21;;;;;;;;;;;;;;;;;;6189870;23;19916;-92
2023/05/19 12:15:58;;;;;;;;;;;;;;;;;;6159176;23;19966;-92
2023/05/19 12:21:22;;;;;;;;;;;;;;;;;;6204351;23;19981;-93
2023/05/19 12:23:48;;;;;;;;;;;;;;;;;;6157366;23;20034;-92
2023/05/19 12:26:14;;;;;;;;;;;;;;;;;;6180708;23;19985;-92
2023/05/19 12:28:40;;;;;;;;;;;;;;;;;;6176739;23;19920;-92
2023/05/19 12:31:06;;;;;;;;;;;;;;;;;;6156109;23;20337;-92
2023/05/19 12:33:33;;;;;;;;;;;;;;;;;;6178833;23;19920;-92
2023/05/19 12:35:59;;;;;;;;;;;;;;;;;;6181215;23;19963;-92
2023/05/19 12:38:25;;;;;;;;;;;;;;;;;;6205003;23;19931;-94
2023/05/19 12:40:51;;;;;;;;;;;;;;;;;;6157086;23;19982;-92
2023/05/19 12:43:17;;;;;;;;;;;;;;;;;;6189188;22;19920;-92
2023/05/19 12:45:44;;;;;;;;;;;;;;;;;;6239564;22;19919;-92
2023/05/19 12:48:10;;;;;;;;;;;;;;;;;;6218922;22;19923;-92
2023/05/19 12:50:36;;;;;;;;;;;;;;;;;;6240328;22;19994;-91
2023/05/19 12:53:02;;;;;;;;;;;;;;;;;;6271321;22;19915;-92
2023/05/19 12:55:28;;;;;;;;;;;;;;;;;;6214459;22;19938;-93
2023/05/19 12:57:55;;;;;;;;;;;;;;;;;;6218059;22;19919;-92
2023/05/19 13:00:24;;;;;;;;;;;;;;;;;;6241938;22;19922;-92
2023/05/19 13:02:50;;;;;;;;;;;;;;;;;;6218726;22;19933;-92
2023/05/19 13:05:16;;;;;;;;;;;;;;;;;;6216273;22;19967;-92
2023/05/19 13:07:42;;;;;;;;;;;;;;;;;;6212197;22;20427;-92
2023/05/19 13:10:08;;;;;;;;;;;;;;;;;;6241855;22;19973;-92
2023/05/19 13:12:34;;;;;;;;;;;;;;;;;;6240448;22;19922;-93
2023/05/19 13:15:00;;;;;;;;;;;;;;;;;;6242945;22;19919;-92
2023/05/19 13:17:26;;;;;;;;;;;;;;;;;;6215640;22;19923;-92
2023/05/19 13:19:51;;;;;;;;;;;;;;;;;;6218032;22;19922;-92
2023/05/19 13:22:17;;;;;;;;;;;;;;;;;;6243261;22;19922;-92
2023/05/19 13:24:43;;;;;;;;;;;;;;;;;;6215229;22;19919;-92
2023/05/19 13:27:09;;;;;;;;;;;;;;;;;;6241438;22;20228;-91
2023/05/19 13:29:35;;;;;;;;;;;;;;;;;;6239003;22;19923;-92
2023/05/19 13:32:01;;;;;;;;;;;;;;;;;;6242987;22;19994;-92
2023/05/19 13:34:27;;;;;;;;;;;;;;;;;;6213471;22;20147;-92
2023/05/19 13:36:53;;;;;;;;;;;;;;;;;;6216976;22;19986;-92
2023/05/19 13:39:19;;;;;;;;;;;;;;;;;;6242524;22;19919;-92
2023/05/19 13:41:45;;;;;;;;;;;;;;;;;;6215795;22;19938;-92
2023/05/19 13:44:11;;;;;;;;;;;;;;;;;;6242745;22;19919;-93
2023/05/19 13:46:37;;;;;;;;;;;;;;;;;;6215344;22;19915;-92
2023/05/19 13:49:03;;;;;;;;;;;;;;;;;;6217670;22;19919;-92
2023/05/19 13:51:29;;;;;;;;;;;;;;;;;;6214823;22;20244;-92
2023/05/19 13:53:55;;;;;;;;;;;;;;;;;;6241950;22;19926;-92
2023/05/19 13:56:21;;;;;;;;;;;;;;;;;;6243061;22;19923;-92
2023/05/19 13:58:47;;;;;;;;;;;;;;;;;;6215353;22;19919;-93
2023/05/19 14:01:13;;;;;;;;;;;;;;;;;;6218319;22;19915;-93
2023/05/19 14:03:39;;;;;;;;;;;;;;;;;;6214469;22;19919;-92
2023/05/19 14:06:05;;;;;;;;;;;;;;;;;;6218263;22;19927;-92
2023/05/19 14:08:31;;;;;;;;;;;;;;;;;;6214086;22;19919;-93
2023/05/19 14:10:57;;;;;;;;;;;;;;;;;;6216590;22;19923;-93
2023/05/19 14:13:25;;;;;;;;;;;;;;;;;;6216391;22;19915;-92
2023/05/19 14:15:51;;;;;;;;;;;;;;;;;;6242676;22;19924;-93
2023/05/19 14:18:17;;;;;;;;;;;;;;;;;;6218387;22;19972;-92
2023/05/19 14:20:43;;;;;;;;;;;;;;;;;;6215295;22;20085;-93
2023/05/19 14:23:09;;;;;;;;;;;;;;;;;;6217790;22;19965;-92
2023/05/19 14:25:35;;;;;;;;;;;;;;;;;;6215484;22;19915;-92
2023/05/19 14:28:01;;;;;;;;;;;;;;;;;;6217084;22;19916;-93
2023/05/19 14:30:27;;;;;;;;;;;;;;;;;;6239242;22;19930;-92
2023/05/19 14:32:53;;;;;;;;;;;;;;;;;;6218100;22;20316;-92
2023/05/19 14:35:19;;;;;;;;;;;;;;;;;;6216808;22;20044;-93
2023/05/19 14:37:45;;;;;;;;;;;;;;;;;;6232215;22;19966;-82
2023/05/19 14:40:17;;;;;;;;;;;;;;;;;;6238971;22;19915;-82
2023/05/19 14:42:44;;;;;;;;;;;;;;;;;;6208542;22;20308;-82
2023/05/19 14:45:10;;;;;;;;;;;;;;;;;;6212393;22;19919;-82
2023/05/19 14:47:36;;;;;;;;;;;;;;;;;;6234644;22;20229;-83
2023/05/19 14:50:02;;;;;;;;;;;;;;;;;;6239057;22;19932;-83
2023/05/19 14:52:28;;;;;;;;;;;;;;;;;;6236850;22;19921;-83
2023/05/19 14:54:55;;;;;;;;;;;;;;;;;;6214007;22;19947;-82
2023/05/19 14:57:21;;;;;;;;;;;;;;;;;;6215166;22;19915;-82
2023/05/19 14:59:47;;;;;;;;;;;;;;;;;;6211983;22;19986;-83
2023/05/19 15:02:13;;;;;;;;;;;;;;;;;;6212507;22;20357;-83
2023/05/19 15:04:39;;;;;;;;;;;;;;;;;;6209939;22;19954;-83
2023/05/19 15:07:05;;;;;;;;;;;;;;;;;;6215482;22;19915;-82
2023/05/19 15:09:31;;;;;;;;;;;;;;;;;;6234913;22;19934;-82
2023/05/19 15:11:59;;;;;;;;;;;;;;;;;;6213110;22;19942;-83
2023/05/19 15:14:25;;;;;;;;;;;;;;;;;;6234311;22;20276;-83
2023/05/19 15:16:51;;;;;;;;;;;;;;;;;;6212989;22;19926;-83
2023/05/19 15:19:17;;;;;;;;;;;;;;;;;;6213671;22;20252;-83
2023/05/19 15:21:45;;;;;;;;;;;;;;;;;;6233306;22;19929;-83
2023/05/19 15:24:11;;;;;;;;;;;;;;;;;;6211646;22;19915;-82
2023/05/19 15:26:38;;;;;;;;;;;;;;;;;;6211208;22;19966;-82
2023/05/19 15:29:10;;;;;;;;;;;;;;;;;;6212332;22;19915;-82
2023/05/19 15:31:37;;;;;;;;;;;;;;;;;;6211922;22;19923;-82
2023/05/19 15:34:03;;;;;;;;;;;;;;;;;;6214975;22;19922;-82
2023/05/19 15:36:29;;;;;;;;;;;;;;;;;;6212254;22;19915;-82
2023/05/19 15:38:55;;;;;;;;;;;;;;;;;;6241660;22;19919;-82
2023/05/19 15:41:21;;;;;;;;;;;;;;;;;;6242440;22;20250;-82
2023/05/19 15:43:47;;;;;;;;;;;;;;;;;;6237238;22;19990;-83
2023/05/19 15:46:14;;;;;;;;;;;;;;;;;;6216190;22;19990;-83
2023/05/19 15:48:43;;;;;;;;;;;;;;;;;;6239343;22;19919;-82
2023/05/19 15:51:12;;;;;;;;;;;;;;;;;;6216010;22;20321;-82
2023/05/19 15:53:38;;;;;;;;;;;;;;;;;;6212235;22;20331;-82
2023/05/19 15:56:04;;;;;;;;;;;;;;;;;;6241046;22;20373;-82
2023/05/19 15:58:30;;;;;;;;;;;;;;;;;;6240562;22;19919;-82
2023/05/19 16:00:56;;;;;;;;;;;;;;;;;;6216011;22;19919;-82
2023/05/19 16:03:24;;;;;;;;;;;;;;;;;;6238973;22;21534;-82
2023/05/19 16:05:50;;;;;;;;;;;;;;;;;;6215985;22;19915;-82
2023/05/19 16:08:16;;;;;;;;;;;;;;;;;;6216007;22;19951;-82
2023/05/19 16:10:42;;;;;;;;;;;;;;;;;;6213778;22;19923;-82
2023/05/19 16:13:08;;;;;;;;;;;;;;;;;;6217912;22;19915;-82
2023/05/19 16:15:34;;;;;;;;;;;;;;;;;;6214944;22;19923;-82
2023/05/19 16:18:01;;;;;;;;;;;;;;;;;;6242634;22;20279;-82
2023/05/19 16:20:28;;;;;;;;;;;;;;;;;;6236961;22;19919;-82
2023/05/19 16:22:54;;;;;;;;;;;;;;;;;;6241398;22;19922;-82
2023/05/19 16:25:20;;;;;;;;;;;;;;;;;;6214835;22;19989;-82
2023/05/19 16:27:46;;;;;;;;;;;;;;;;;;6238879;22;19951;-82
2023/05/19 16:30:12;;;;;;;;;;;;;;;;;;6215436;22;19919;-82
2023/05/19 16:32:38;;;;;;;;;;;;;;;;;;6239167;22;19930;-82
2023/05/19 16:35:04;;;;;;;;;;;;;;;;;;6213896;22;20327;-82
2023/05/19 16:37:31;;;;;;;;;;;;;;;;;;6213499;22;19919;-82
2023/05/19 16:39:59;;;;;;;;;;;;;;;;;;6215441;22;19919;-82
2023/05/19 16:42:25;;;;;;;;;;;;;;;;;;6240118;22;20609;-82
2023/05/19 16:44:51;;;;;;;;;;;;;;;;;;6214305;22;20029;-82
2023/05/19 16:47:17;;;;;;;;;;;;;;;;;;6214795;22;19919;-82
2023/05/19 16:50:17;;;;;;;;;;;;;;;;;;6213572;22;20450;-92
2023/05/19 17:09:11;;;;;;;;;;;;;;;;;;;;;